Time;durP1;ratioP1;P1;durP2;ratioP2;P2;SDS_P1;SDS_P2;PMS_P1;PMS_P2;Temp;Humidity;BMP_temperature;BMP_pressure;BME280_temperature;BME280_humidity;BME280_pressure;Samples;Min_cycle;Max_cycle;Signal;HPM_P1;HPM_P2
2020/12/25 00:01:22;;;;;;;1.90;0.75;;;2.40;99.90;;;;;;5014532;28;20041;-75
2020/12/25 00:03:48;;;;;;;0.80;0.80;;;2.40;99.90;;;;;;4997269;28;20022;-73
2020/12/25 00:06:14;;;;;;;0.93;0.93;;;2.40;99.90;;;;;;5015268;28;20061;-75
2020/12/25 00:08:39;;;;;;;0.90;0.90;;;2.40;99.90;;;;;;5014228;28;20026;-74
2020/12/25 00:11:05;;;;;;;0.70;0.70;;;2.30;99.90;;;;;;5014749;28;20029;-74
2020/12/25 00:13:30;;;;;;;0.77;0.77;;;2.40;99.90;;;;;;5015349;28;20076;-75
2020/12/25 00:15:57;;;;;;;0.98;0.98;;;2.40;99.90;;;;;;5001461;28;20705;-74
2020/12/25 00:18:23;;;;;;;0.88;0.80;;;2.30;99.90;;;;;;5013990;28;20061;-74
2020/12/25 00:20:49;;;;;;;1.00;1.00;;;2.40;99.90;;;;;;5017163;28;20457;-74
2020/12/25 00:23:15;;;;;;;0.70;0.70;;;2.40;99.90;;;;;;5014448;28;20341;-75
2020/12/25 00:25:40;;;;;;;0.68;0.68;;;2.40;99.90;;;;;;5012741;28;20105;-75
2020/12/25 00:28:06;;;;;;;0.90;0.90;;;2.40;99.90;;;;;;5013589;28;20164;-75
2020/12/25 00:30:31;;;;;;;0.90;0.90;;;2.30;99.90;;;;;;4995084;28;20034;-75
2020/12/25 00:32:57;;;;;;;0.70;0.70;;;2.30;99.90;;;;;;5012948;28;20092;-75
2020/12/25 00:35:22;;;;;;;0.80;0.80;;;2.40;99.90;;;;;;5013244;28;20365;-75
2020/12/25 00:37:48;;;;;;;0.70;0.70;;;2.30;99.90;;;;;;5012688;28;20429;-76
2020/12/25 00:40:14;;;;;;;1.10;1.00;;;2.30;99.90;;;;;;4995595;28;20085;-76
2020/12/25 00:42:39;;;;;;;0.95;0.95;;;2.40;99.90;;;;;;5013469;28;20014;-74
2020/12/25 00:45:05;;;;;;;1.20;1.10;;;2.40;99.90;;;;;;5013640;28;20544;-75
2020/12/25 00:47:30;;;;;;;1.15;1.08;;;2.30;99.90;;;;;;5013445;28;20497;-75
2020/12/25 00:49:56;;;;;;;1.33;1.23;;;2.40;99.90;;;;;;4994954;28;20401;-74
2020/12/25 00:52:24;;;;;;;1.30;1.20;;;2.40;99.90;;;;;;5012499;28;20022;-75
2020/12/25 00:54:52;;;;;;;1.10;1.10;;;2.30;99.90;;;;;;5012177;28;20053;-76
2020/12/25 00:57:18;;;;;;;1.38;1.27;;;2.30;99.90;;;;;;5013515;28;20033;-75
2020/12/25 00:59:44;;;;;;;1.60;1.50;;;2.30;99.90;;;;;;5014743;28;20018;-76
2020/12/25 01:02:10;;;;;;;1.20;1.10;;;2.40;99.90;;;;;;5012150;28;20049;-74
2020/12/25 01:04:35;;;;;;;1.10;1.08;;;2.40;99.90;;;;;;4995202;28;20018;-75
2020/12/25 01:07:07;;;;;;;1.45;1.35;;;2.40;99.90;;;;;;5012413;28;20030;-75
2020/12/25 01:09:33;;;;;;;1.25;1.15;;;2.30;99.90;;;;;;4979195;28;20038;-74
2020/12/25 01:11:59;;;;;;;1.70;1.60;;;2.30;99.90;;;;;;5013040;28;20030;-76
2020/12/25 01:14:27;;;;;;;1.58;1.48;;;2.30;99.90;;;;;;5016170;28;20026;-76
2020/12/25 01:16:54;;;;;;;1.80;1.70;;;2.40;99.90;;;;;;5025464;28;20030;-75
2020/12/25 01:19:21;;;;;;;1.83;1.40;;;2.40;99.90;;;;;;5026725;28;20454;-75
2020/12/25 01:21:47;;;;;;;1.80;1.70;;;2.40;99.90;;;;;;5029642;28;20030;-75
2020/12/25 01:24:12;;;;;;;1.85;1.75;;;2.30;99.90;;;;;;5030826;28;20110;-75
2020/12/25 01:26:38;;;;;;;1.80;1.70;;;2.30;99.90;;;;;;5030806;28;20061;-74
2020/12/25 01:29:03;;;;;;;2.13;1.85;;;2.40;99.90;;;;;;5021050;28;20021;-75
2020/12/25 01:31:29;;;;;;;1.92;1.83;;;2.50;99.90;;;;;;5016385;28;20113;-75
2020/12/25 01:33:55;;;;;;;1.70;1.60;;;2.50;99.90;;;;;;5001465;28;20383;-75
2020/12/25 01:36:20;;;;;;;1.50;1.40;;;2.60;99.90;;;;;;5017031;28;20048;-74
2020/12/25 01:38:46;;;;;;;2.08;1.98;;;2.70;99.90;;;;;;5013212;28;20025;-73
2020/12/25 01:41:12;;;;;;;1.85;1.75;;;2.80;99.90;;;;;;5013461;28;20037;-73
2020/12/25 01:43:37;;;;;;;1.90;1.80;;;2.70;99.90;;;;;;4995785;28;20433;-74
2020/12/25 01:46:03;;;;;;;1.85;1.75;;;2.70;99.90;;;;;;4997143;28;20029;-73
2020/12/25 01:48:29;;;;;;;1.95;1.85;;;2.80;99.90;;;;;;5016838;28;20038;-74
2020/12/25 01:50:54;;;;;;;2.45;2.25;;;2.80;99.90;;;;;;5017023;28;20037;-74
2020/12/25 01:53:21;;;;;;;2.58;2.38;;;2.80;99.90;;;;;;4999213;28;20401;-74
2020/12/25 01:55:48;;;;;;;2.45;2.25;;;2.80;99.90;;;;;;5016897;28;20030;-74
2020/12/25 01:58:14;;;;;;;2.67;2.47;;;2.90;99.90;;;;;;5015900;28;20026;-74
2020/12/25 02:00:40;;;;;;;2.90;2.70;;;2.90;99.90;;;;;;5016166;28;20068;-74
2020/12/25 02:03:06;;;;;;;3.42;3.22;;;2.80;99.90;;;;;;5015499;28;20124;-73
2020/12/25 02:05:32;;;;;;;2.95;2.75;;;2.80;99.90;;;;;;5013121;28;20465;-73
2020/12/25 02:07:58;;;;;;;3.53;3.22;;;2.80;99.90;;;;;;5014299;28;20038;-74
2020/12/25 02:10:24;;;;;;;6.05;3.10;;;2.90;99.90;;;;;;4993032;28;20494;-74
2020/12/25 02:12:51;;;;;;;3.35;3.05;;;2.90;99.90;;;;;;5013741;28;20055;-74
2020/12/25 02:15:17;;;;;;;4.43;3.95;;;2.90;99.90;;;;;;5015437;28;20036;-73
2020/12/25 02:17:44;;;;;;;3.55;3.25;;;2.90;99.90;;;;;;5016675;28;20026;-73
2020/12/25 02:20:14;;;;;;;5.43;4.57;;;3.00;99.90;;;;;;5017379;28;20022;-75
2020/12/25 02:22:41;;;;;;;4.18;3.78;;;3.00;99.90;;;;;;5000168;28;20022;-72
2020/12/25 02:25:07;;;;;;;4.72;4.22;;;3.10;99.90;;;;;;4998275;28;20077;-75
2020/12/25 02:27:33;;;;;;;3.55;3.25;;;3.10;99.90;;;;;;5017170;28;20026;-73
2020/12/25 02:29:58;;;;;;;5.00;4.50;;;3.00;99.90;;;;;;5005623;28;20064;-73
2020/12/25 02:32:24;;;;;;;4.57;3.67;;;3.10;99.90;;;;;;5016178;28;20051;-73
2020/12/25 02:34:50;;;;;;;4.70;4.20;;;3.10;99.90;;;;;;5049124;28;20052;-73
2020/12/25 02:37:15;;;;;;;5.05;4.65;;;3.10;99.90;;;;;;5048009;28;20366;-75
2020/12/25 02:39:41;;;;;;;5.28;4.75;;;3.10;99.90;;;;;;5030351;28;20029;-73
2020/12/25 02:42:10;;;;;;;6.00;5.40;;;3.10;99.90;;;;;;5017977;28;20033;-72
2020/12/25 02:44:36;;;;;;;6.95;5.00;;;3.10;99.90;;;;;;5018429;28;20030;-73
2020/12/25 02:47:01;;;;;;;5.25;4.75;;;3.10;99.90;;;;;;5015496;28;20034;-72
2020/12/25 02:49:27;;;;;;;7.35;5.35;;;3.10;99.90;;;;;;5006222;28;20117;-73
2020/12/25 02:51:53;;;;;;;5.63;4.82;;;3.20;99.90;;;;;;5014769;28;20446;-73
2020/12/25 02:54:18;;;;;;;6.93;4.05;;;3.20;99.90;;;;;;5015156;28;20052;-72
2020/12/25 02:56:45;;;;;;;6.85;5.63;;;3.10;99.90;;;;;;5013854;28;20513;-72
2020/12/25 02:59:10;;;;;;;5.03;4.57;;;3.20;99.90;;;;;;5014846;28;20076;-72
2020/12/25 03:01:36;;;;;;;8.88;4.90;;;3.10;99.90;;;;;;5015066;28;20022;-72
2020/12/25 03:04:01;;;;;;;6.85;5.70;;;3.10;99.90;;;;;;5014293;28;20049;-74
2020/12/25 03:06:27;;;;;;;5.10;4.32;;;3.20;99.90;;;;;;5014992;28;20065;-72
2020/12/25 03:08:52;;;;;;;5.90;4.78;;;3.20;99.90;;;;;;4997143;28;20409;-72
2020/12/25 03:11:18;;;;;;;5.35;4.82;;;3.20;99.90;;;;;;5014737;28;20061;-73
2020/12/25 03:13:44;;;;;;;7.75;5.15;;;3.20;99.90;;;;;;5014331;28;20486;-73
2020/12/25 03:16:10;;;;;;;4.30;3.58;;;3.20;99.90;;;;;;4996434;28;20041;-73
2020/12/25 03:18:35;;;;;;;5.70;4.72;;;3.20;99.90;;;;;;5014042;28;20101;-73
2020/12/25 03:21:01;;;;;;;4.45;4.03;;;3.20;99.90;;;;;;5013614;28;20105;-72
2020/12/25 03:23:27;;;;;;;5.88;5.25;;;3.20;99.90;;;;;;5014234;28;20034;-73
2020/12/25 03:25:52;;;;;;;4.93;3.83;;;3.20;99.90;;;;;;5013925;28;20033;-71
2020/12/25 03:28:18;;;;;;;4.63;4.18;;;3.20;99.90;;;;;;4996187;28;20113;-73
2020/12/25 03:30:44;;;;;;;4.93;4.50;;;3.20;99.90;;;;;;5014393;28;20026;-72
2020/12/25 03:33:10;;;;;;;6.57;5.00;;;3.30;99.90;;;;;;5015226;28;20030;-75
2020/12/25 03:35:35;;;;;;;6.45;4.05;;;3.30;99.90;;;;;;5014887;28;20044;-72
2020/12/25 03:38:01;;;;;;;5.28;4.63;;;3.30;99.90;;;;;;5013256;28;20517;-73
2020/12/25 03:40:27;;;;;;;5.90;4.82;;;3.20;99.90;;;;;;5009883;28;20026;-73
2020/12/25 03:42:53;;;;;;;5.13;4.63;;;3.30;99.90;;;;;;5014274;28;20037;-73
2020/12/25 03:45:18;;;;;;;5.60;5.10;;;3.30;99.90;;;;;;5014068;28;20026;-73
2020/12/25 03:47:44;;;;;;;4.68;4.28;;;3.30;99.90;;;;;;4995201;28;20041;-73
2020/12/25 03:50:10;;;;;;;5.57;4.72;;;3.20;99.90;;;;;;5011030;28;20088;-73
2020/12/25 03:52:36;;;;;;;5.28;4.15;;;3.30;99.90;;;;;;5014100;28;20394;-72
2020/12/25 03:55:02;;;;;;;6.22;4.38;;;3.30;99.90;;;;;;5014069;28;20081;-73
2020/12/25 03:57:28;;;;;;;6.10;4.88;;;3.30;99.90;;;;;;5015113;28;20018;-73
2020/12/25 03:59:53;;;;;;;5.68;5.07;;;3.30;99.90;;;;;;5015409;28;20022;-72
2020/12/25 04:02:19;;;;;;;7.18;4.75;;;3.30;99.90;;;;;;5014127;28;20034;-74
2020/12/25 04:04:45;;;;;;;6.05;5.40;;;3.30;99.90;;;;;;5014457;28;20064;-73
2020/12/25 04:07:10;;;;;;;5.35;4.85;;;3.30;99.90;;;;;;5014034;28;20029;-72
2020/12/25 04:09:36;;;;;;;7.05;6.05;;;3.20;99.90;;;;;;5041542;22;20053;-72
2020/12/25 04:12:01;;;;;;;5.38;4.50;;;3.20;99.90;;;;;;5004552;28;20057;-72
2020/12/25 04:14:27;;;;;;;6.20;4.90;;;3.20;99.90;;;;;;5018171;28;20048;-71
2020/12/25 04:16:53;;;;;;;5.90;4.90;;;3.20;99.90;;;;;;5021395;28;20371;-71
2020/12/25 04:19:18;;;;;;;4.70;4.30;;;3.20;99.90;;;;;;5021588;28;20034;-71
2020/12/25 04:21:44;;;;;;;5.07;4.57;;;3.20;99.90;;;;;;5026698;28;20025;-73
2020/12/25 04:24:09;;;;;;;5.43;4.93;;;3.20;99.90;;;;;;5031181;28;20083;-71
2020/12/25 04:26:35;;;;;;;4.75;4.25;;;3.20;99.90;;;;;;5027311;28;20037;-71
2020/12/25 04:29:00;;;;;;;6.07;5.20;;;3.20;99.90;;;;;;5029230;28;20049;-70
2020/12/25 04:31:27;;;;;;;4.60;4.20;;;3.20;99.90;;;;;;5032023;28;20045;-72
2020/12/25 04:33:53;;;;;;;4.82;4.32;;;3.20;99.90;;;;;;5031800;28;20037;-72
2020/12/25 04:36:20;;;;;;;6.28;5.13;;;3.20;99.90;;;;;;5014371;28;20367;-71
2020/12/25 04:38:46;;;;;;;5.28;4.78;;;3.20;99.90;;;;;;5013820;28;20056;-70
2020/12/25 04:41:12;;;;;;;6.07;5.47;;;3.10;99.90;;;;;;5024426;28;20053;-70
2020/12/25 04:43:41;;;;;;;5.88;5.28;;;3.20;99.90;;;;;;5020738;28;20022;-71
2020/12/25 04:46:10;;;;;;;5.40;4.90;;;3.20;99.90;;;;;;5014523;28;20034;-73
2020/12/25 04:48:36;;;;;;;4.78;4.38;;;3.20;99.90;;;;;;5014171;28;20030;-73
2020/12/25 04:51:05;;;;;;;5.20;4.72;;;3.10;99.90;;;;;;5029895;28;20025;-71
2020/12/25 04:53:31;;;;;;;5.10;4.60;;;3.10;99.90;;;;;;5023663;28;20034;-71
2020/12/25 04:55:58;;;;;;;9.32;6.05;;;3.00;99.90;;;;;;4994897;28;20041;-71
2020/12/25 04:58:24;;;;;;;5.53;3.88;;;3.10;99.90;;;;;;5014823;28;20077;-70
2020/12/25 05:01:07;;;;;;;4.88;4.20;;;3.10;99.90;;;;;;5020019;28;20045;-71
2020/12/25 05:03:37;;;;;;;7.30;5.15;;;3.10;99.90;;;;;;5024179;28;20026;-71
2020/12/25 05:06:07;;;;;;;5.35;4.85;;;3.10;99.90;;;;;;5029067;28;20081;-70
2020/12/25 05:08:40;;;;;;;5.55;4.70;;;3.10;99.90;;;;;;5025954;28;20040;-70
2020/12/25 05:11:07;;;;;;;4.57;4.15;;;3.10;99.90;;;;;;5012722;28;20034;-71
2020/12/25 05:13:33;;;;;;;5.63;5.10;;;3.00;99.90;;;;;;4994893;28;20030;-71
2020/12/25 05:15:59;;;;;;;5.88;5.10;;;3.20;99.90;;;;;;5012837;28;20025;-71
2020/12/25 05:18:30;;;;;;;6.15;5.55;;;3.10;99.90;;;;;;5014046;28;20092;-71
2020/12/25 05:21:08;;;;;;;5.75;5.25;;;3.10;99.90;;;;;;4999520;28;20033;-71
2020/12/25 05:23:35;;;;;;;5.75;5.13;;;3.10;99.90;;;;;;5001745;28;20053;-75
2020/12/25 05:26:01;;;;;;;5.57;5.07;;;3.00;99.90;;;;;;5009443;28;20461;-72
2020/12/25 05:28:28;;;;;;;5.57;5.07;;;3.00;99.90;;;;;;5022469;28;20034;-71
2020/12/25 05:30:57;;;;;;;4.38;4.00;;;3.00;99.90;;;;;;5022331;28;20050;-74
2020/12/25 05:33:25;;;;;;;4.95;4.20;;;3.00;99.90;;;;;;5000603;28;20026;-71
2020/12/25 05:35:54;;;;;;;7.28;5.65;;;3.00;99.90;;;;;;5021166;28;20041;-72
2020/12/25 05:38:20;;;;;;;5.80;5.30;;;3.00;99.90;;;;;;5001588;28;20029;-71
2020/12/25 05:40:45;;;;;;;5.60;5.10;;;3.00;99.90;;;;;;5002694;28;20474;-72
2020/12/25 05:43:18;;;;;;;6.10;5.50;;;2.90;99.90;;;;;;5020179;28;20033;-72
2020/12/25 05:45:45;;;;;;;6.90;5.38;;;3.00;99.90;;;;;;5019489;28;20108;-72
2020/12/25 05:48:11;;;;;;;6.32;5.72;;;3.00;99.90;;;;;;5015925;28;20030;-72
2020/12/25 05:50:38;;;;;;;5.90;5.38;;;3.00;99.90;;;;;;5015501;28;20076;-71
2020/12/25 05:53:04;;;;;;;6.00;5.47;;;3.00;99.90;;;;;;5015604;28;20486;-71
2020/12/25 05:55:30;;;;;;;6.28;5.60;;;3.00;99.90;;;;;;5015769;28;20041;-70
2020/12/25 05:57:56;;;;;;;7.93;6.25;;;3.00;99.90;;;;;;5014821;28;20018;-71
2020/12/25 06:00:23;;;;;;;6.82;5.72;;;3.00;99.90;;;;;;4997800;28;20495;-71
2020/12/25 06:02:50;;;;;;;7.05;6.47;;;2.90;99.90;;;;;;5015099;28;20105;-72
2020/12/25 06:05:18;;;;;;;6.50;5.90;;;3.00;99.90;;;;;;5015076;28;20033;-71
2020/12/25 06:08:05;;;;;;;7.35;6.50;;;3.00;99.90;;;;;;4996967;28;20056;-72
2020/12/25 06:10:31;;;;;;;6.63;5.95;;;3.00;99.90;;;;;;5014381;28;20049;-71
2020/12/25 06:12:57;;;;;;;6.47;5.88;;;3.00;99.90;;;;;;5015623;28;20037;-72
2020/12/25 06:15:28;;;;;;;6.95;6.25;;;3.00;99.90;;;;;;4996793;28;20030;-72
2020/12/25 06:18:14;;;;;;;;;;;3.00;99.90;;;;;;4997837;28;20457;-71
2020/12/25 06:20:49;;;;;;;7.47;6.78;;;2.90;99.90;;;;;;5014422;28;19917;-70
2020/12/25 06:23:17;;;;;;;7.05;6.22;;;3.10;99.90;;;;;;5015015;28;20022;-71
2020/12/25 06:25:43;;;;;;;5.88;5.28;;;3.10;99.90;;;;;;5015073;28;20084;-70
2020/12/25 06:28:09;;;;;;;7.60;6.70;;;3.10;99.90;;;;;;5014668;28;20033;-71
2020/12/25 06:30:35;;;;;;;8.65;7.32;;;3.00;99.90;;;;;;5014135;28;20037;-72
2020/12/25 06:33:01;;;;;;;6.70;5.97;;;2.90;99.90;;;;;;5006820;28;20038;-71
2020/12/25 06:35:42;;;;;;;8.45;7.55;;;2.90;99.90;;;;;;4997923;28;20403;-72
2020/12/25 06:38:16;;;;;;;10.70;7.53;;;2.90;99.90;;;;;;5015077;28;20022;-72
2020/12/25 06:40:44;;;;;;;7.75;7.05;;;3.00;99.90;;;;;;5015131;28;20049;-71
2020/12/25 06:43:17;;;;;;;8.13;7.32;;;2.90;99.90;;;;;;5015086;28;20049;-71
2020/12/25 06:45:49;;;;;;;8.93;7.50;;;2.90;99.90;;;;;;5015209;28;20034;-70
2020/12/25 06:48:17;;;;;;;6.72;5.72;;;2.80;99.90;;;;;;5014202;28;20546;-71
2020/12/25 06:50:52;;;;;;;8.50;7.63;;;2.80;99.90;;;;;;5014872;28;20088;-71
2020/12/25 06:53:38;;;;;;;7.15;6.45;;;2.80;99.90;;;;;;5012242;28;20029;-71
2020/12/25 06:56:21;;;;;;;6.80;6.20;;;2.80;99.90;;;;;;5014808;28;20061;-72
2020/12/25 06:58:49;;;;;;;6.85;6.25;;;2.70;99.90;;;;;;5004983;28;20029;-72
2020/12/25 07:01:18;;;;;;;6.53;5.78;;;2.70;99.90;;;;;;5014249;28;20026;-71
2020/12/25 07:03:44;;;;;;;6.80;5.72;;;2.60;99.90;;;;;;5014491;28;20041;-73
2020/12/25 07:06:13;;;;;;;6.38;5.65;;;2.50;99.90;;;;;;5014697;28;20149;-72
2020/12/25 07:08:52;;;;;;;8.30;7.28;;;2.50;99.90;;;;;;5013307;28;20021;-72
2020/12/25 07:11:19;;;;;;;7.47;6.78;;;2.50;99.90;;;;;;5014016;28;20030;-71
2020/12/25 07:13:45;;;;;;;6.28;5.68;;;2.50;99.90;;;;;;5014008;28;20018;-70
2020/12/25 07:16:11;;;;;;;7.38;6.38;;;2.50;99.90;;;;;;5013645;28;20132;-71
2020/12/25 07:18:37;;;;;;;6.47;5.75;;;2.50;99.90;;;;;;5013422;28;20101;-71
2020/12/25 07:21:05;;;;;;;6.25;5.65;;;2.50;99.90;;;;;;5013314;28;20437;-72
2020/12/25 07:23:31;;;;;;;6.05;5.45;;;2.50;99.90;;;;;;5014097;28;20081;-71
2020/12/25 07:25:58;;;;;;;5.85;5.28;;;2.50;99.90;;;;;;4995903;28;20436;-71
2020/12/25 07:28:25;;;;;;;6.57;5.93;;;2.50;99.90;;;;;;4995654;28;20116;-70
2020/12/25 07:30:53;;;;;;;6.53;5.85;;;2.50;99.90;;;;;;5002578;28;20044;-71
2020/12/25 07:33:19;;;;;;;6.43;5.72;;;2.50;99.90;;;;;;5020104;28;20045;-70
2020/12/25 07:35:45;;;;;;;5.28;4.22;;;2.50;99.90;;;;;;5023621;28;20029;-71
2020/12/25 07:38:14;;;;;;;6.10;5.50;;;2.50;99.90;;;;;;5013615;28;20117;-70
2020/12/25 07:40:44;;;;;;;6.35;5.75;;;2.60;99.90;;;;;;5014899;28;20018;-71
2020/12/25 07:43:11;;;;;;;5.85;5.28;;;2.50;99.90;;;;;;4996022;28;20117;-71
2020/12/25 07:45:37;;;;;;;5.35;4.85;;;2.60;99.90;;;;;;5013974;28;20030;-71
2020/12/25 07:48:05;;;;;;;5.70;5.20;;;2.50;99.90;;;;;;5014722;28;20053;-71
2020/12/25 07:50:36;;;;;;;6.05;5.53;;;2.50;99.90;;;;;;5014957;28;20113;-71
2020/12/25 07:53:12;;;;;;;6.00;5.20;;;2.50;99.90;;;;;;5003695;28;20034;-74
2020/12/25 07:55:38;;;;;;;5.20;4.70;;;2.50;99.90;;;;;;5014358;28;20047;-72
2020/12/25 07:58:04;;;;;;;7.35;6.57;;;2.50;99.90;;;;;;5012692;28;20057;-72
2020/12/25 08:00:30;;;;;;;6.28;5.65;;;2.50;99.90;;;;;;5014926;28;20021;-71
2020/12/25 08:02:57;;;;;;;6.25;4.90;;;2.50;99.90;;;;;;5014538;28;20497;-71
2020/12/25 08:05:26;;;;;;;5.72;5.18;;;2.60;99.90;;;;;;5015371;28;20037;-70
2020/12/25 08:07:52;;;;;;;6.10;5.50;;;2.60;99.90;;;;;;5013443;28;20029;-70
2020/12/25 08:10:18;;;;;;;6.93;6.22;;;2.60;99.90;;;;;;5014954;28;20040;-72
2020/12/25 08:12:48;;;;;;;9.85;8.93;;;2.60;99.90;;;;;;5020465;28;20022;-72
2020/12/25 08:15:14;;;;;;;6.83;6.13;;;2.70;99.90;;;;;;5013751;28;20029;-72
2020/12/25 08:17:40;;;;;;;8.27;7.47;;;2.80;99.90;;;;;;4998186;28;20062;-72
2020/12/25 08:20:05;;;;;;;8.00;7.20;;;2.80;99.90;;;;;;5016043;28;20026;-71
2020/12/25 08:22:31;;;;;;;8.68;7.88;;;2.80;99.90;;;;;;5013197;28;20057;-71
2020/12/25 08:24:58;;;;;;;8.45;7.63;;;2.90;99.90;;;;;;5013286;28;20022;-71
2020/12/25 08:27:24;;;;;;;8.73;7.40;;;2.90;99.90;;;;;;5013106;28;20026;-71
2020/12/25 08:29:51;;;;;;;9.32;8.32;;;2.90;99.90;;;;;;4995441;28;20379;-71
2020/12/25 08:32:16;;;;;;;12.45;8.98;;;3.00;99.90;;;;;;5014855;28;20026;-72
2020/12/25 08:34:42;;;;;;;12.07;8.27;;;2.90;99.90;;;;;;4996510;28;20068;-72
2020/12/25 08:37:09;;;;;;;8.98;8.15;;;2.90;99.90;;;;;;4996360;28;20375;-78
2020/12/25 08:39:35;;;;;;;11.70;9.60;;;2.90;99.90;;;;;;5013889;28;20523;-72
2020/12/25 08:42:02;;;;;;;12.50;9.18;;;3.00;99.90;;;;;;5015687;28;20037;-71
2020/12/25 08:44:28;;;;;;;11.90;8.73;;;3.00;99.90;;;;;;4997772;28;20509;-71
2020/12/25 08:47:10;;;;;;;10.82;9.73;;;3.10;99.90;;;;;;5013747;28;20036;-71
2020/12/25 08:49:36;;;;;;;12.48;9.60;;;3.00;99.90;;;;;;5003334;28;20458;-74
2020/12/25 08:52:02;;;;;;;10.73;9.68;;;3.10;99.90;;;;;;5013719;28;20481;-73
2020/12/25 08:54:29;;;;;;;12.77;9.85;;;3.20;99.90;;;;;;5013883;28;20087;-71
2020/12/25 08:56:55;;;;;;;11.68;9.57;;;3.10;99.90;;;;;;5014272;28;20044;-75
2020/12/25 08:59:21;;;;;;;13.30;10.13;;;3.20;99.90;;;;;;5014045;28;20068;-72
2020/12/25 09:01:48;;;;;;;11.25;10.02;;;3.30;99.90;;;;;;4997080;28;20112;-71
2020/12/25 09:04:20;;;;;;;13.93;10.95;;;3.40;99.90;;;;;;5015332;28;20056;-72
2020/12/25 09:06:49;;;;;;;12.13;10.20;;;3.50;99.90;;;;;;5014598;28;20030;-72
2020/12/25 09:09:15;;;;;;;12.25;9.55;;;3.50;99.90;;;;;;5013251;28;20495;-71
2020/12/25 09:11:41;;;;;;;10.93;9.85;;;3.50;99.90;;;;;;5013225;28;20061;-71
2020/12/25 09:14:06;;;;;;;11.18;10.07;;;3.40;99.90;;;;;;5013221;28;20061;-71
2020/12/25 09:16:32;;;;;;;12.60;10.45;;;3.40;99.90;;;;;;5012898;28;20045;-71
2020/12/25 09:18:59;;;;;;;16.55;10.05;;;3.40;99.90;;;;;;5013239;28;20512;-70
2020/12/25 09:21:27;;;;;;;14.35;9.70;;;3.50;99.90;;;;;;5013745;28;20030;-71
2020/12/25 09:23:56;;;;;;;13.55;10.00;;;3.60;99.90;;;;;;4995045;28;20587;-73
2020/12/25 09:26:22;;;;;;;11.45;9.60;;;3.70;99.90;;;;;;5013265;28;20477;-71
2020/12/25 09:28:48;;;;;;;9.63;8.63;;;3.70;99.90;;;;;;5012563;28;20032;-71
2020/12/25 09:31:14;;;;;;;10.43;9.20;;;3.70;99.90;;;;;;5012929;28;20108;-71
2020/12/25 09:33:40;;;;;;;13.10;10.23;;;3.70;99.90;;;;;;5016044;28;20033;-72
2020/12/25 09:36:07;;;;;;;14.70;12.65;;;3.70;99.90;;;;;;5015062;28;20504;-72
2020/12/25 09:38:32;;;;;;;11.80;10.15;;;3.70;99.90;;;;;;5012796;28;20504;-72
2020/12/25 09:40:58;;;;;;;11.52;10.15;;;3.80;99.90;;;;;;5013105;28;20105;-71
2020/12/25 09:43:24;;;;;;;12.00;8.70;;;3.70;99.90;;;;;;5014406;28;20022;-72
2020/12/25 09:45:49;;;;;;;12.48;9.70;;;3.70;99.90;;;;;;4996098;28;20034;-71
2020/12/25 09:48:15;;;;;;;8.45;7.05;;;3.70;99.90;;;;;;5013001;28;20045;-73
2020/12/25 09:50:43;;;;;;;9.05;8.13;;;3.80;99.90;;;;;;4995935;28;20034;-71
2020/12/25 09:53:09;;;;;;;11.68;8.27;;;3.90;99.90;;;;;;5013801;28;20038;-70
2020/12/25 09:55:39;;;;;;;11.45;7.68;;;3.90;99.90;;;;;;5002879;28;20030;-72
2020/12/25 09:58:06;;;;;;;8.80;6.88;;;4.00;99.90;;;;;;4996869;28;20052;-71
2020/12/25 10:00:32;;;;;;;9.13;7.38;;;4.10;99.90;;;;;;5017062;28;20034;-72
2020/12/25 10:02:58;;;;;;;8.63;7.05;;;4.10;99.90;;;;;;5017218;28;20040;-72
2020/12/25 10:05:24;;;;;;;9.18;6.72;;;4.10;99.90;;;;;;5016759;28;20030;-72
2020/12/25 10:07:52;;;;;;;7.90;6.22;;;4.00;99.90;;;;;;5017850;28;20022;-71
2020/12/25 10:10:18;;;;;;;7.53;6.15;;;4.00;99.90;;;;;;5018080;28;20081;-72
2020/12/25 10:12:45;;;;;;;6.78;6.10;;;4.00;99.90;;;;;;4998859;28;20033;-73
2020/12/25 10:15:10;;;;;;;7.68;6.85;;;4.00;99.90;;;;;;5014682;28;20032;-71
2020/12/25 10:17:36;;;;;;;10.00;7.13;;;3.90;99.90;;;;;;5016317;28;20025;-72
2020/12/25 10:20:01;;;;;;;10.23;6.35;;;3.90;99.90;;;;;;5015713;28;20068;-72
2020/12/25 10:22:27;;;;;;;10.25;6.40;;;3.80;99.90;;;;;;5015768;28;20377;-72
2020/12/25 10:24:53;;;;;;;7.65;6.22;;;3.80;99.90;;;;;;5016419;28;20044;-72
2020/12/25 10:27:19;;;;;;;10.00;6.53;;;3.80;99.90;;;;;;4999655;28;20025;-71
2020/12/25 10:29:44;;;;;;;5.65;5.05;;;3.80;99.90;;;;;;4999935;28;20041;-71
2020/12/25 10:32:10;;;;;;;6.63;5.57;;;3.80;99.90;;;;;;5018346;28;20030;-70
2020/12/25 10:34:50;;;;;;;6.30;5.70;;;3.90;99.90;;;;;;5010540;28;20030;-72
2020/12/25 10:37:15;;;;;;;6.90;5.93;;;4.00;99.90;;;;;;5027405;28;20033;-72
2020/12/25 10:39:42;;;;;;;10.13;6.13;;;4.00;99.90;;;;;;5034809;28;20030;-73
2020/12/25 10:42:09;;;;;;;8.48;6.22;;;3.90;99.90;;;;;;5027912;28;20026;-74
2020/12/25 10:44:35;;;;;;;8.63;7.57;;;4.00;99.90;;;;;;5017791;28;20032;-75
2020/12/25 10:47:28;;;;;;;8.70;6.68;;;4.00;99.90;;;;;;5035294;28;20041;-71
2020/12/25 10:49:54;;;;;;;6.90;6.22;;;4.10;99.90;;;;;;5016308;28;20029;-72
2020/12/25 10:52:22;;;;;;;8.10;7.30;;;4.10;99.90;;;;;;5017148;28;20026;-74
2020/12/25 10:54:48;;;;;;;11.88;7.47;;;4.10;99.90;;;;;;5034200;28;20034;-72
2020/12/25 10:57:13;;;;;;;7.72;6.93;;;4.00;99.90;;;;;;5032162;28;20060;-73
2020/12/25 10:59:39;;;;;;;6.57;5.95;;;4.00;99.90;;;;;;5032291;28;20041;-73
2020/12/25 11:02:05;;;;;;;6.55;5.50;;;4.00;99.90;;;;;;5026406;28;20030;-73
2020/12/25 11:04:32;;;;;;;9.27;6.03;;;4.00;99.90;;;;;;5026510;28;20033;-73
2020/12/25 11:06:57;;;;;;;7.47;5.50;;;4.00;99.90;;;;;;5005230;28;20030;-72
2020/12/25 11:09:23;;;;;;;6.35;5.75;;;4.00;99.90;;;;;;5026078;28;20034;-72
2020/12/25 11:11:48;;;;;;;4.82;4.35;;;3.90;99.90;;;;;;5011543;28;20117;-72
2020/12/25 11:14:14;;;;;;;4.72;4.22;;;3.80;99.90;;;;;;5031990;28;20034;-73
2020/12/25 11:16:46;;;;;;;5.75;5.22;;;3.70;99.90;;;;;;5031922;28;20048;-73
2020/12/25 11:19:13;;;;;;;5.85;4.93;;;3.70;99.90;;;;;;5030015;28;20038;-72
2020/12/25 11:21:40;;;;;;;6.07;5.30;;;3.80;99.90;;;;;;5005744;28;20049;-73
2020/12/25 11:24:06;;;;;;;7.38;5.50;;;3.80;99.90;;;;;;5031222;28;20026;-74
2020/12/25 11:26:34;;;;;;;6.32;5.72;;;3.80;99.90;;;;;;5030513;28;20049;-75
2020/12/25 11:29:01;;;;;;;5.70;5.10;;;3.80;99.90;;;;;;4994350;28;20026;-73
2020/12/25 11:31:27;;;;;;;8.38;4.95;;;3.70;99.90;;;;;;5026478;28;20386;-74
2020/12/25 11:33:54;;;;;;;5.88;5.07;;;3.70;99.90;;;;;;5023692;28;20559;-73
2020/12/25 11:36:23;;;;;;;4.95;4.45;;;3.70;99.90;;;;;;5023905;28;20034;-74
2020/12/25 11:38:49;;;;;;;6.13;4.10;;;3.80;99.90;;;;;;5025086;28;20041;-73
2020/12/25 11:41:16;;;;;;;5.95;5.38;;;3.70;99.90;;;;;;5028940;28;20482;-73
2020/12/25 11:43:42;;;;;;;5.72;4.72;;;3.80;99.90;;;;;;5026494;28;20025;-74
2020/12/25 11:46:09;;;;;;;5.30;4.35;;;3.80;99.90;;;;;;5025587;28;20036;-75
2020/12/25 11:48:35;;;;;;;6.82;5.28;;;3.80;99.90;;;;;;5023507;28;20034;-71
2020/12/25 11:51:01;;;;;;;6.55;5.95;;;3.80;99.90;;;;;;5018116;28;20051;-70
2020/12/25 11:53:26;;;;;;;5.20;4.45;;;3.90;99.90;;;;;;5016756;28;20108;-71
2020/12/25 11:55:53;;;;;;;5.38;4.90;;;3.90;99.90;;;;;;5014895;28;20030;-72
2020/12/25 11:58:18;;;;;;;7.40;5.93;;;3.80;99.90;;;;;;5015327;28;20037;-71
2020/12/25 12:00:44;;;;;;;5.32;4.82;;;3.70;99.90;;;;;;5014939;28;20088;-72
2020/12/25 12:03:10;;;;;;;6.97;5.00;;;3.70;99.90;;;;;;5015438;28;20045;-71
2020/12/25 12:05:39;;;;;;;5.28;4.78;;;3.80;99.90;;;;;;4997489;28;20029;-72
2020/12/25 12:08:05;;;;;;;5.20;4.70;;;3.70;99.90;;;;;;5017125;28;20082;-72
2020/12/25 12:10:32;;;;;;;15.07;4.65;;;3.80;99.90;;;;;;5022728;28;20409;-72
2020/12/25 12:12:57;;;;;;;6.85;4.57;;;3.80;99.90;;;;;;5005923;28;20456;-73
2020/12/25 12:15:23;;;;;;;7.32;4.72;;;3.90;99.90;;;;;;5024601;28;20078;-71
2020/12/25 12:17:48;;;;;;;6.03;4.15;;;3.90;99.90;;;;;;5022253;28;20052;-72
2020/12/25 12:20:14;;;;;;;5.75;4.82;;;3.90;99.90;;;;;;5019966;28;20029;-71
2020/12/25 12:22:40;;;;;;;4.90;4.38;;;3.80;99.90;;;;;;5016412;28;20034;-71
2020/12/25 12:25:06;;;;;;;4.25;3.75;;;3.70;99.90;;;;;;4998771;28;20494;-71
2020/12/25 12:27:32;;;;;;;4.85;4.05;;;3.70;99.90;;;;;;5015725;28;20454;-72
2020/12/25 12:29:57;;;;;;;6.47;4.70;;;3.70;99.90;;;;;;5016273;28;20030;-71
2020/12/25 12:32:23;;;;;;;4.40;3.97;;;3.80;99.90;;;;;;5015422;28;20148;-71
2020/12/25 12:34:49;;;;;;;7.47;5.10;;;3.70;99.90;;;;;;5016448;28;20505;-70
2020/12/25 12:37:14;;;;;;;5.72;4.78;;;3.70;99.90;;;;;;5015426;28;20037;-72
2020/12/25 12:39:40;;;;;;;4.00;3.60;;;3.70;99.90;;;;;;5014637;28;20024;-71
2020/12/25 12:42:05;;;;;;;5.97;3.88;;;3.70;99.90;;;;;;5014413;28;20100;-72
2020/12/25 12:44:31;;;;;;;5.30;4.53;;;3.60;99.90;;;;;;5015042;28;20437;-70
2020/12/25 12:46:56;;;;;;;8.15;4.53;;;3.70;99.90;;;;;;5013442;28;20033;-72
2020/12/25 12:49:22;;;;;;;4.68;3.83;;;3.70;99.90;;;;;;4996643;28;20022;-70
2020/12/25 12:51:48;;;;;;;4.68;4.28;;;3.70;99.90;;;;;;5013260;28;20061;-70
2020/12/25 12:54:13;;;;;;;10.32;4.65;;;3.60;99.90;;;;;;4996845;28;20084;-74